Breien, North Dakota
Current Conditions -  °F | °C
As of 10:15 PM on Sunday 23 Nov 2014 (Local Time) from K7L2 Reporting Station
Light Snow Light Snow  
Wind Chill:   Ceiling: 2300
Heat Index: 19°   Visibility: 8mi
Dew Point: 14°   Wind: 16mph
Humidity: 80%   Direction: 340°NNW
Pressure: 29.68"   Gusts: 23mph
Location:  46.2767°N, 100.811°W
Report Text: K7L2 240415Z AUTO 34014G20KT 8SM -SN OVC023 M07/M10 A2968 RMK AO2
Loading
Personal Weather Stations






























Interactive Weather Map New forecast layout! Learn more

10-Day Weather Forecast

Advertisements
Track Severe Weather on mobile